createdAt,value
2023-02-15T00:00:27.902Z,2.00
2023-02-15T00:02:56.581Z,2.10
2023-02-15T00:05:24.989Z,2.30
2023-02-15T00:07:54.089Z,1.90
2023-02-15T00:10:22.145Z,1.90
2023-02-15T00:12:51.911Z,2.10
2023-02-15T00:15:20.247Z,2.30
2023-02-15T00:17:49.416Z,2.50
2023-02-15T00:20:19.502Z,2.40
2023-02-15T00:22:47.560Z,2.40
2023-02-15T00:25:15.664Z,2.10
2023-02-15T00:27:43.664Z,1.50
2023-02-15T00:30:12.562Z,1.80
2023-02-15T00:32:41.190Z,2.50
2023-02-15T00:35:10.793Z,2.40
2023-02-15T00:37:40.215Z,3.40
2023-02-15T00:40:08.918Z,2.10
2023-02-15T00:42:38.156Z,2.10
2023-02-15T00:45:06.558Z,2.60
2023-02-15T00:47:34.560Z,1.90
2023-02-15T00:50:04.323Z,2.30
2023-02-15T00:52:32.876Z,1.90
2023-02-15T00:55:01.399Z,2.20
2023-02-15T00:57:29.768Z,2.20
2023-02-15T01:00:03.743Z,2.00
2023-02-15T01:02:35.546Z,2.20
2023-02-15T01:05:04.376Z,2.10
2023-02-15T01:07:32.417Z,1.80
2023-02-15T01:10:01.063Z,2.00
2023-02-15T01:12:29.877Z,1.60
2023-02-15T01:14:58.454Z,2.10
2023-02-15T01:17:27.305Z,2.00
2023-02-15T01:19:58.194Z,1.70
2023-02-15T01:22:26.458Z,2.50
2023-02-15T01:24:56.546Z,2.30
2023-02-15T01:27:24.646Z,2.70
2023-02-15T01:29:54.014Z,2.60
2023-02-15T01:32:23.953Z,1.80
2023-02-15T01:34:52.267Z,2.60
2023-02-15T01:37:21.675Z,1.80
2023-02-15T01:39:49.651Z,2.20
2023-02-15T01:42:24.820Z,1.90
2023-02-15T01:44:54.983Z,2.20
2023-02-15T01:50:31.234Z,2.20
2023-02-15T01:53:09.730Z,2.90
2023-02-15T01:55:39.881Z,2.00
2023-02-15T01:58:08.734Z,1.70
2023-02-15T02:00:36.747Z,1.60
2023-02-15T02:03:05.926Z,1.90
2023-02-15T02:05:35.912Z,2.10
2023-02-15T02:08:04.508Z,1.50
2023-02-15T02:10:34.935Z,1.40
2023-02-15T02:13:05.594Z,1.60
2023-02-15T02:15:57.340Z,1.40
2023-02-15T02:18:55.382Z,1.70
2023-02-15T02:21:50.745Z,1.30
2023-02-15T02:24:58.478Z,1.50
2023-02-15T02:27:35.789Z,1.50
2023-02-15T02:30:46.880Z,2.00
2023-02-15T02:33:22.179Z,1.40
2023-02-15T02:36:05.422Z,1.90
2023-02-15T02:39:02.308Z,1.50
2023-02-15T02:41:59.914Z,3.40
2023-02-15T02:44:35.084Z,2.90
2023-02-15T02:47:20.553Z,3.90
2023-02-15T02:49:48.825Z,4.10
2023-02-15T02:52:42.851Z,2.50
2023-02-15T02:55:16.584Z,1.70
2023-02-15T02:58:34.437Z,1.40
2023-02-15T03:01:09.558Z,1.30
2023-02-15T03:03:49.396Z,1.60
2023-02-15T03:06:20.134Z,1.50
2023-02-15T03:08:55.038Z,2.00
2023-02-15T03:11:23.201Z,2.20
2023-02-15T03:13:52.784Z,1.80
2023-02-15T03:16:27.015Z,2.20
2023-02-15T03:19:00.143Z,1.70
2023-02-15T03:21:39.920Z,1.70
2023-02-15T03:24:33.556Z,2.20
2023-02-15T03:27:03.829Z,2.10
2023-02-15T03:29:32.022Z,2.10
2023-02-15T03:32:02.896Z,1.80
2023-02-15T03:37:01.680Z,2.00
2023-02-15T03:39:50.561Z,1.70
2023-02-15T03:42:32.113Z,2.50
2023-02-15T03:45:04.750Z,1.90
2023-02-15T03:47:53.654Z,2.20
2023-02-15T03:50:50.505Z,1.90
2023-02-15T03:53:22.058Z,1.40
2023-02-15T03:55:57.106Z,1.50
2023-02-15T03:58:43.999Z,1.30
2023-02-15T04:01:36.277Z,1.50
2023-02-15T04:04:08.924Z,4.20
2023-02-15T04:06:37.010Z,1.70
2023-02-15T04:09:23.639Z,1.90
2023-02-15T04:11:53.832Z,1.70
2023-02-15T04:14:40.354Z,1.40
2023-02-15T04:17:10.742Z,1.80
2023-02-15T04:19:58.464Z,1.50
2023-02-15T04:22:45.292Z,1.50
2023-02-15T04:25:16.333Z,2.10
2023-02-15T04:27:50.097Z,1.40
2023-02-15T04:30:19.701Z,2.10
2023-02-15T04:32:48.108Z,2.90
2023-02-15T04:35:16.255Z,3.60
2023-02-15T04:37:50.311Z,3.30
2023-02-15T04:40:19.705Z,3.10
2023-02-15T04:42:51.048Z,3.00
2023-02-15T04:45:19.111Z,2.90
2023-02-15T04:47:47.694Z,2.30
2023-02-15T04:50:16.062Z,2.10
2023-02-15T04:52:45.567Z,2.60
2023-02-15T04:55:15.368Z,2.40
2023-02-15T04:57:44.080Z,2.30
2023-02-15T05:00:13.286Z,2.10
2023-02-15T05:02:41.493Z,2.30
2023-02-15T05:05:10.642Z,2.80
2023-02-15T05:07:38.927Z,2.40
2023-02-15T05:10:08.036Z,2.50
2023-02-15T05:12:36.672Z,2.70
2023-02-15T05:15:05.029Z,2.50
2023-02-15T05:17:33.685Z,2.90
2023-02-15T05:20:01.709Z,3.10
2023-02-15T05:22:29.923Z,2.40
2023-02-15T05:25:16.799Z,2.40
2023-02-15T05:28:05.253Z,2.60
2023-02-15T05:30:34.186Z,2.00
2023-02-15T05:33:04.081Z,2.20
2023-02-15T05:35:33.147Z,2.70
2023-02-15T05:38:01.221Z,2.40
2023-02-15T05:40:29.470Z,2.90
2023-02-15T05:42:58.025Z,2.60
2023-02-15T05:45:27.195Z,2.30
2023-02-15T05:47:59.465Z,2.00
2023-02-15T05:50:30.827Z,2.50
2023-02-15T05:53:06.705Z,2.40
2023-02-15T05:55:34.898Z,2.30
2023-02-15T05:58:02.933Z,2.30
2023-02-15T06:00:31.158Z,2.30
2023-02-15T06:02:59.189Z,2.30
2023-02-15T06:05:27.429Z,1.80
2023-02-15T06:07:56.381Z,2.70
2023-02-15T06:10:50.248Z,2.40
2023-02-15T06:13:18.443Z,3.50
2023-02-15T06:15:46.575Z,1.50
2023-02-15T06:18:15.537Z,2.50
2023-02-15T06:20:43.794Z,2.30
2023-02-15T06:23:12.088Z,2.10
2023-02-15T06:25:40.182Z,3.70
2023-02-15T06:28:08.319Z,7.50
2023-02-15T06:30:36.460Z,9.00
2023-02-15T06:33:05.218Z,14.80
2023-02-15T06:35:33.783Z,14.80
2023-02-15T06:38:02.417Z,3.50
2023-02-15T06:40:30.991Z,6.50
2023-02-15T06:43:02.217Z,10.60
2023-02-15T06:45:30.479Z,10.50
2023-02-15T06:47:58.538Z,8.70
2023-02-15T06:50:27.150Z,4.60
2023-02-15T06:52:58.921Z,3.50
2023-02-15T06:55:27.431Z,15.80
2023-02-15T06:57:55.676Z,3.70
2023-02-15T07:00:24.344Z,4.40
2023-02-15T07:02:56.761Z,7.40
2023-02-15T07:05:32.175Z,3.20
2023-02-15T07:08:00.726Z,5.50
2023-02-15T07:10:29.272Z,3.60
2023-02-15T07:12:57.594Z,3.30
2023-02-15T07:15:26.075Z,5.50
2023-02-15T07:17:54.647Z,4.40
2023-02-15T07:20:23.819Z,4.30
2023-02-15T07:22:52.014Z,2.90
2023-02-15T07:25:20.613Z,3.50
2023-02-15T07:27:49.116Z,3.20
2023-02-15T07:30:17.688Z,3.50
2023-02-15T07:33:06.691Z,3.00
2023-02-15T07:35:35.041Z,2.70
2023-02-15T07:38:03.202Z,3.70
2023-02-15T07:40:31.501Z,2.50
2023-02-15T07:43:00.272Z,2.60
2023-02-15T07:45:29.045Z,2.80
2023-02-15T07:48:02.091Z,3.20
2023-02-15T07:50:31.415Z,2.50
2023-02-15T07:52:59.531Z,2.80
2023-02-15T07:55:27.554Z,2.80
2023-02-15T07:57:55.752Z,3.00
2023-02-15T08:00:26.510Z,2.60
2023-02-15T08:03:14.590Z,3.00
2023-02-15T08:05:44.835Z,2.10
2023-02-15T08:08:31.785Z,2.40
2023-02-15T08:11:24.555Z,2.20
2023-02-15T08:13:56.473Z,2.20
2023-02-15T08:16:33.585Z,2.50
2023-02-15T08:19:06.150Z,3.10
2023-02-15T08:21:35.675Z,2.20
2023-02-15T08:24:04.358Z,2.70
2023-02-15T08:26:35.715Z,2.70
2023-02-15T08:29:04.412Z,2.10
2023-02-15T08:31:32.616Z,2.20
2023-02-15T08:34:00.783Z,3.10
2023-02-15T08:36:29.946Z,2.60
2023-02-15T08:38:59.088Z,2.30
2023-02-15T08:41:37.038Z,2.10
2023-02-15T08:44:08.750Z,2.30
2023-02-15T08:46:42.644Z,2.60
2023-02-15T08:49:14.893Z,3.10
2023-02-15T08:51:43.825Z,2.70
2023-02-15T08:54:17.718Z,1.80
2023-02-15T08:56:46.100Z,2.60
2023-02-15T08:59:19.074Z,1.90
2023-02-15T09:01:47.538Z,2.40
2023-02-15T09:04:16.977Z,2.60
2023-02-15T09:06:48.374Z,1.70
2023-02-15T09:09:23.452Z,1.90
2023-02-15T09:11:58.603Z,2.00
2023-02-15T09:14:28.006Z,2.00
2023-02-15T09:16:57.300Z,2.40
2023-02-15T09:19:26.012Z,1.60
2023-02-15T09:21:54.628Z,1.80
2023-02-15T09:24:23.083Z,1.90
2023-02-15T09:26:53.582Z,1.80
2023-02-15T09:29:21.806Z,1.80
2023-02-15T09:31:51.249Z,1.70
2023-02-15T09:34:21.375Z,1.80
2023-02-15T09:36:49.897Z,1.80
2023-02-15T09:39:20.036Z,2.10
2023-02-15T09:42:14.570Z,2.90
2023-02-15T09:45:05.056Z,2.50
2023-02-15T09:47:45.723Z,2.60
2023-02-15T09:50:36.762Z,2.90
2023-02-15T09:53:29.278Z,3.10
2023-02-15T09:56:06.661Z,2.70
2023-02-15T09:58:42.261Z,3.20
2023-02-15T10:01:26.798Z,2.70
2023-02-15T10:04:07.330Z,2.90
2023-02-15T10:09:44.914Z,3.10
2023-02-15T10:12:28.245Z,3.60
2023-02-15T10:15:35.637Z,4.30
2023-02-15T10:18:15.943Z,3.00
2023-02-15T10:21:06.926Z,3.00
2023-02-15T10:23:55.292Z,3.10
2023-02-15T10:26:42.102Z,2.80
2023-02-15T10:29:17.314Z,3.10
2023-02-15T10:31:54.135Z,2.10
2023-02-15T10:34:48.561Z,2.60
2023-02-15T10:37:56.216Z,2.50
2023-02-15T10:41:01.033Z,2.00
2023-02-15T10:43:32.453Z,2.20
2023-02-15T10:46:11.634Z,2.20
2023-02-15T10:48:47.025Z,2.00
2023-02-15T10:51:25.104Z,2.60
2023-02-15T10:54:06.928Z,2.50
2023-02-15T10:56:45.238Z,2.20
2023-02-15T10:59:35.212Z,2.20
2023-02-15T11:02:11.962Z,2.70
2023-02-15T11:04:55.813Z,2.50
2023-02-15T11:07:26.977Z,2.70
2023-02-15T11:10:08.876Z,2.80
2023-02-15T11:12:37.202Z,2.40
2023-02-15T11:15:16.543Z,3.10
2023-02-15T11:18:00.578Z,2.20
2023-02-15T11:20:34.536Z,2.40
2023-02-15T11:23:02.933Z,2.20
2023-02-15T11:25:35.111Z,1.80
2023-02-15T11:28:05.469Z,2.60
2023-02-15T11:30:57.862Z,2.20
2023-02-15T11:33:29.349Z,2.30
2023-02-15T11:36:04.830Z,2.20
2023-02-15T11:38:34.002Z,2.30
2023-02-15T11:41:15.687Z,2.90
2023-02-15T11:44:00.400Z,2.50
2023-02-15T11:46:29.863Z,1.90
2023-02-15T11:48:59.531Z,1.40
2023-02-15T11:51:28.914Z,2.10
2023-02-15T11:53:57.375Z,2.30
2023-02-15T11:56:26.208Z,2.30
2023-02-15T11:59:08.557Z,1.90
2023-02-15T12:01:39.525Z,1.90
2023-02-15T12:04:42.458Z,2.60
2023-02-15T12:07:27.159Z,2.10
2023-02-15T12:10:23.041Z,2.30
2023-02-15T12:13:19.198Z,2.10
2023-02-15T12:15:57.310Z,1.30
2023-02-15T12:18:45.365Z,1.70
2023-02-15T12:21:24.863Z,2.20
2023-02-15T12:23:54.889Z,2.20
2023-02-15T12:26:31.736Z,2.60
2023-02-15T12:29:03.221Z,3.40
2023-02-15T12:31:37.882Z,3.20
2023-02-15T12:34:28.035Z,3.40
2023-02-15T12:36:59.197Z,2.70
2023-02-15T12:39:28.671Z,1.60
2023-02-15T12:41:57.127Z,2.20
2023-02-15T12:44:30.120Z,2.60
2023-02-15T12:47:06.419Z,2.00
2023-02-15T12:49:35.738Z,3.70
2023-02-15T12:52:18.789Z,3.20
2023-02-15T12:54:47.328Z,2.90
2023-02-15T12:57:15.580Z,3.80
2023-02-15T12:59:51.966Z,3.30
2023-02-15T13:02:25.062Z,3.70
2023-02-15T13:04:53.111Z,3.40
2023-02-15T13:07:21.794Z,3.90
2023-02-15T13:09:50.785Z,4.20
2023-02-15T13:12:27.850Z,3.20
2023-02-15T13:14:58.762Z,3.10
2023-02-15T13:17:32.199Z,4.30
2023-02-15T13:20:25.720Z,5.00
2023-02-15T13:23:05.320Z,3.90
2023-02-15T13:25:48.562Z,4.70
2023-02-15T13:28:17.961Z,3.40
2023-02-15T13:30:48.552Z,2.90
2023-02-15T13:33:36.998Z,5.20
2023-02-15T13:36:21.805Z,4.90
2023-02-15T13:38:53.034Z,4.10
2023-02-15T13:41:26.109Z,5.60
2023-02-15T13:44:26.119Z,5.20
2023-02-15T13:47:06.750Z,5.20
2023-02-15T13:49:49.174Z,4.00
2023-02-15T13:52:24.737Z,4.40
2023-02-15T13:55:11.562Z,3.70
2023-02-15T13:58:08.161Z,5.20
2023-02-15T14:00:48.418Z,3.30
2023-02-15T14:03:41.174Z,3.70
2023-02-15T14:06:35.709Z,4.90
2023-02-15T14:09:11.816Z,5.40
2023-02-15T14:11:55.378Z,4.30
2023-02-15T14:15:08.873Z,4.40
2023-02-15T14:17:48.971Z,4.10
2023-02-15T14:20:37.729Z,3.40
2023-02-15T14:23:08.867Z,3.70
2023-02-15T14:25:49.528Z,3.00
2023-02-15T14:28:46.468Z,3.30
2023-02-15T14:31:15.214Z,4.90
2023-02-15T14:34:01.860Z,7.00
2023-02-15T14:36:31.325Z,4.60
2023-02-15T14:40:01.180Z,4.80
2023-02-15T14:42:35.738Z,3.90
2023-02-15T14:45:17.029Z,3.60
2023-02-15T14:48:17.646Z,5.20
2023-02-15T14:50:47.374Z,6.60
2023-02-15T14:53:18.581Z,5.70
2023-02-15T14:55:47.066Z,6.60
2023-02-15T14:58:15.201Z,7.30
2023-02-15T15:00:43.382Z,7.70
2023-02-15T15:03:22.874Z,7.80
2023-02-15T15:05:54.210Z,7.20
2023-02-15T15:08:28.065Z,5.80
2023-02-15T15:10:56.753Z,7.50
2023-02-15T15:13:34.168Z,5.50
2023-02-15T15:16:37.132Z,2.80
2023-02-15T15:19:07.432Z,4.30
2023-02-15T15:21:51.100Z,3.00
2023-02-15T15:24:38.247Z,3.60
2023-02-15T15:27:41.071Z,2.90
2023-02-15T15:30:15.166Z,3.60
2023-02-15T15:32:56.208Z,1.60
2023-02-15T15:36:06.693Z,2.30
2023-02-15T15:39:00.006Z,2.30
2023-02-15T15:41:56.684Z,2.80
2023-02-15T15:44:43.230Z,5.10
2023-02-15T15:47:32.083Z,3.60
2023-02-15T15:50:02.054Z,3.10
2023-02-15T15:52:32.592Z,3.60
2023-02-15T15:57:38.798Z,4.70
2023-02-15T16:00:45.739Z,5.40
2023-02-15T16:03:21.423Z,3.60
2023-02-15T16:05:55.391Z,4.50
2023-02-15T16:08:35.986Z,7.80
2023-02-15T16:11:34.189Z,7.70
2023-02-15T16:14:02.429Z,9.20
2023-02-15T16:16:30.720Z,9.50
2023-02-15T16:19:00.788Z,9.30
2023-02-15T16:21:33.021Z,9.40
2023-02-15T16:24:15.012Z,4.70
2023-02-15T16:27:14.747Z,5.10
2023-02-15T16:29:43.231Z,7.30
2023-02-15T16:32:25.732Z,8.80
2023-02-15T16:34:58.670Z,6.30
2023-02-15T16:37:28.564Z,7.20
2023-02-15T16:39:56.679Z,4.00
2023-02-15T16:42:26.200Z,3.60
2023-02-15T16:45:09.067Z,3.50
2023-02-15T16:47:44.978Z,4.70
2023-02-15T16:50:25.414Z,3.80
2023-02-15T16:52:55.585Z,3.90
2023-02-15T16:55:25.659Z,3.30
2023-02-15T16:58:00.014Z,5.50
2023-02-15T17:00:32.080Z,7.00
2023-02-15T17:03:03.029Z,11.00
2023-02-15T17:05:33.340Z,9.50
2023-02-15T17:10:39.902Z,7.90
2023-02-15T17:13:15.029Z,5.60
2023-02-15T17:16:07.793Z,4.30
2023-02-15T17:18:46.056Z,3.60
2023-02-15T17:21:18.821Z,3.10
2023-02-15T17:23:48.520Z,2.30
2023-02-15T17:26:20.671Z,2.90
2023-02-15T17:28:57.348Z,2.40
2023-02-15T17:31:32.991Z,3.30
2023-02-15T17:34:05.781Z,3.20
2023-02-15T17:36:35.061Z,3.10
2023-02-15T17:39:10.900Z,4.10
2023-02-15T17:41:40.842Z,3.90
2023-02-15T17:44:14.963Z,3.20
2023-02-15T17:46:44.522Z,3.60
2023-02-15T17:49:23.302Z,3.50
2023-02-15T17:51:51.424Z,3.50
2023-02-15T17:54:38.901Z,4.20
2023-02-15T17:57:13.015Z,5.20
2023-02-15T18:00:00.860Z,5.70
2023-02-15T18:02:51.857Z,4.90
2023-02-15T18:05:42.546Z,3.30
2023-02-15T18:08:37.991Z,3.20
2023-02-15T18:11:27.063Z,2.70
2023-02-15T18:14:00.707Z,4.00
2023-02-15T18:16:37.555Z,3.80
2023-02-15T18:19:17.810Z,4.20
2023-02-15T18:21:46.148Z,4.20
2023-02-15T18:24:24.957Z,4.20
2023-02-15T18:26:54.280Z,3.40
2023-02-15T18:29:22.729Z,2.90
2023-02-15T18:31:53.534Z,2.70
2023-02-15T18:34:25.799Z,3.10
2023-02-15T18:36:54.378Z,2.80
2023-02-15T18:39:40.994Z,2.70
2023-02-15T18:42:21.814Z,4.00
2023-02-15T18:45:05.464Z,2.90
2023-02-15T18:47:34.279Z,3.50
2023-02-15T18:50:02.368Z,3.50
2023-02-15T18:52:32.690Z,3.30
2023-02-15T18:55:02.920Z,3.00
2023-02-15T18:57:31.326Z,3.40
2023-02-15T18:59:59.363Z,4.10
2023-02-15T19:02:29.284Z,4.00
2023-02-15T19:04:57.355Z,3.90
2023-02-15T19:07:26.873Z,4.00
2023-02-15T19:09:57.244Z,3.10
2023-02-15T19:12:25.454Z,3.60
2023-02-15T19:14:59.089Z,2.90
2023-02-15T19:17:28.259Z,2.40
2023-02-15T19:19:56.335Z,2.60
2023-02-15T19:22:29.577Z,2.80
2023-02-15T19:25:00.978Z,2.20
2023-02-15T19:27:31.992Z,2.50
2023-02-15T19:32:31.871Z,1.90
2023-02-15T19:35:00.366Z,2.00
2023-02-15T19:37:37.324Z,1.60
2023-02-15T19:40:07.514Z,1.90
2023-02-15T19:42:35.744Z,1.90
2023-02-15T19:45:13.651Z,2.80
2023-02-15T19:47:43.503Z,3.20
2023-02-15T19:50:20.352Z,2.50
2023-02-15T19:52:48.515Z,2.30
2023-02-15T19:55:26.448Z,2.70
2023-02-15T19:57:55.858Z,2.00
2023-02-15T20:00:32.702Z,2.20
2023-02-15T20:03:02.026Z,2.80
2023-02-15T20:05:31.053Z,2.80
2023-02-15T20:07:59.118Z,2.90
2023-02-15T20:10:29.139Z,2.70
2023-02-15T20:12:57.360Z,3.00
2023-02-15T20:15:33.551Z,3.60
2023-02-15T20:18:04.285Z,3.90
2023-02-15T20:20:44.828Z,3.00
2023-02-15T20:23:30.700Z,3.40
2023-02-15T20:26:02.217Z,3.70
2023-02-15T20:28:31.720Z,3.50
2023-02-15T20:31:00.227Z,3.90
2023-02-15T20:33:28.645Z,3.50
2023-02-15T20:35:57.884Z,3.50
2023-02-15T20:38:28.349Z,4.90
2023-02-15T20:41:15.304Z,3.80
2023-02-15T20:43:43.377Z,3.10
2023-02-15T20:46:11.697Z,4.00
2023-02-15T20:48:40.330Z,5.00
2023-02-15T20:51:18.532Z,4.20
2023-02-15T20:53:47.965Z,4.00
2023-02-15T20:56:20.771Z,3.30
2023-02-15T20:58:49.063Z,2.70
2023-02-15T21:01:19.924Z,3.80
2023-02-15T21:03:48.501Z,3.30
2023-02-15T21:06:20.942Z,4.70
2023-02-15T21:08:49.066Z,3.70
2023-02-15T21:11:21.180Z,4.20
2023-02-15T21:14:23.441Z,4.80
2023-02-15T21:16:51.632Z,4.40
2023-02-15T21:19:21.243Z,4.50
2023-02-15T21:21:51.466Z,4.20
2023-02-15T21:24:20.762Z,3.50
2023-02-15T21:26:49.204Z,4.20
2023-02-15T21:29:18.710Z,3.10
2023-02-15T21:31:47.158Z,4.00
2023-02-15T21:34:15.733Z,4.00
2023-02-15T21:36:44.350Z,3.30
2023-02-15T21:39:18.282Z,3.80
2023-02-15T21:42:06.536Z,3.60
2023-02-15T21:44:53.298Z,3.00
2023-02-15T21:47:50.801Z,3.80
2023-02-15T21:50:39.501Z,3.90
2023-02-15T21:53:09.828Z,4.10
2023-02-15T21:55:38.847Z,4.90
2023-02-15T21:58:07.237Z,3.70
2023-02-15T22:00:36.301Z,4.00
2023-02-15T22:03:04.447Z,4.20
2023-02-15T22:05:33.439Z,4.60
2023-02-15T22:08:01.666Z,3.70
2023-02-15T22:10:32.936Z,4.10
2023-02-15T22:13:01.824Z,4.20
2023-02-15T22:15:36.824Z,4.80
2023-02-15T22:18:05.581Z,5.20
2023-02-15T22:20:34.879Z,4.70
2023-02-15T22:23:03.273Z,5.20
2023-02-15T22:25:31.769Z,4.60
2023-02-15T22:28:00.112Z,4.50
2023-02-15T22:30:30.679Z,4.20
2023-02-15T22:35:29.453Z,4.20
2023-02-15T22:37:58.159Z,4.30
2023-02-15T22:40:33.941Z,4.50
2023-02-15T22:43:03.756Z,5.40
2023-02-15T22:45:32.349Z,3.60
2023-02-15T22:48:00.738Z,3.90
2023-02-15T22:50:30.788Z,3.60
2023-02-15T22:53:02.389Z,3.70
2023-02-15T22:55:33.855Z,4.20
2023-02-15T22:58:01.905Z,4.40
2023-02-15T23:00:32.898Z,3.30
2023-02-15T23:03:00.906Z,3.50
2023-02-15T23:05:30.652Z,3.30
2023-02-15T23:08:11.576Z,3.80
2023-02-15T23:10:40.535Z,2.80
2023-02-15T23:13:25.559Z,2.40
2023-02-15T23:15:58.713Z,2.80
2023-02-15T23:18:38.533Z,2.80
2023-02-15T23:21:10.914Z,3.40
2023-02-15T23:23:41.711Z,3.30
2023-02-15T23:26:27.866Z,3.30
2023-02-15T23:28:57.345Z,3.90
2023-02-15T23:31:29.864Z,3.30
2023-02-15T23:34:12.802Z,2.70
2023-02-15T23:36:41.104Z,2.60
2023-02-15T23:39:34.338Z,3.60
2023-02-15T23:42:10.684Z,3.20
2023-02-15T23:44:38.782Z,3.20
2023-02-15T23:47:07.401Z,2.60
2023-02-15T23:49:35.591Z,3.00
2023-02-15T23:52:06.191Z,3.80
2023-02-15T23:54:35.541Z,5.20
2023-02-15T23:57:04.061Z,4.20
2023-02-15T23:59:32.399Z,3.90
